KSLR

Sulphur Springs Municipal Airport

Sulphur Springs, Texas, USA
METAR KSLR 162235Z AUTO 17006KT 10SM CLR 16/M02 A3025 RMK AO2 T01611017
Observed Flight Rules
Dec-16 @ 22:35 UTC (11 minutes ago) Visual Flight Rules
Wind Visibility Clouds
170° at 6 knots 10 miles
  • Clear skies
Temperatures Readings
Current 16°C / 61°F
Dewpoint -2°C / 28°F
Humidity 29%
Altimeter 30.25" Hg
Pressure 1024 hPa
Elevation 149
METAR KSLR 162235Z AUTO 17006KT 10SM CLR 16/M02 A3025 RMK AO2 T01611017
Observed Flight Rules
Dec-16 @ 22:35 UTC
(11 minutes ago)
VFR
Wind Visibility
170° at 6 knots 10 miles
Clouds
  • Clear skies
Temperature Dewpoint
16°C / 61°F -2°C / 28°F
Humidity Altimeter Pressure
29% 30.25" Hg 1024 hPa